Terminal Aerodrome Forecast
Issued by NWS

Home | Current Version | Previous Version | Graphics & Text | Print | Product List | Glossary On
Versions: 1 2 3 4 5 6 7 8 9 10 11 12 13 14 15 16 17 18
000
FTUS43 KMPX 301540 AAA
TAFRWF
TAF AMD
KRWF 301540Z 3016/0112 30012KT 2SM -RASN BR OVC004
      TEMPO 3016/3018 4SM -SN BR OVC008
     FM301800 32010KT 3SM -RASN BR SCT004 OVC006
     FM302300 32008KT P6SM SCT008 OVC012=

USA.gov is the U.S. government's official web portal to all federal, state and local government web resources and services.